sensor_id;sensor_type;location;lat;lon;timestamp;temperature;humidity
78649;DHT22;67962;47.310;9.642;2023-02-28T00:01:21;4.00;55.70
78649;DHT22;67962;47.310;9.642;2023-02-28T00:03:47;4.00;55.60
78649;DHT22;67962;47.310;9.642;2023-02-28T00:06:13;3.90;56.20
78649;DHT22;67962;47.310;9.642;2023-02-28T00:08:39;3.80;56.60
78649;DHT22;67962;47.310;9.642;2023-02-28T00:11:08;3.80;57.20
78649;DHT22;67962;47.310;9.642;2023-02-28T00:14:06;3.70;57.50
78649;DHT22;67962;47.310;9.642;2023-02-28T00:16:32;3.70;57.50
78649;DHT22;67962;47.310;9.642;2023-02-28T00:18:58;3.80;57.50
78649;DHT22;67962;47.310;9.642;2023-02-28T00:21:23;3.70;57.40
78649;DHT22;67962;47.310;9.642;2023-02-28T00:23:49;3.80;57.20
78649;DHT22;67962;47.310;9.642;2023-02-28T00:26:15;3.80;57.50
78649;DHT22;67962;47.310;9.642;2023-02-28T00:28:40;3.80;56.90
78649;DHT22;67962;47.310;9.642;2023-02-28T00:31:06;3.80;56.80
78649;DHT22;67962;47.310;9.642;2023-02-28T00:33:32;3.80;56.70
78649;DHT22;67962;47.310;9.642;2023-02-28T00:36:02;3.90;56.20
78649;DHT22;67962;47.310;9.642;2023-02-28T00:38:29;3.90;55.90
78649;DHT22;67962;47.310;9.642;2023-02-28T00:40:54;3.80;55.90
78649;DHT22;67962;47.310;9.642;2023-02-28T00:43:20;3.70;56.20
78649;DHT22;67962;47.310;9.642;2023-02-28T00:45:46;3.60;56.00
78649;DHT22;67962;47.310;9.642;2023-02-28T00:48:11;3.50;56.40
78649;DHT22;67962;47.310;9.642;2023-02-28T00:50:37;3.50;56.40
78649;DHT22;67962;47.310;9.642;2023-02-28T00:53:03;3.40;56.60
78649;DHT22;67962;47.310;9.642;2023-02-28T00:55:29;3.40;57.20
78649;DHT22;67962;47.310;9.642;2023-02-28T00:57:54;3.30;56.90
78649;DHT22;67962;47.310;9.642;2023-02-28T01:00:20;3.40;57.00
78649;DHT22;67962;47.310;9.642;2023-02-28T01:02:46;3.40;57.00
78649;DHT22;67962;47.310;9.642;2023-02-28T01:05:11;3.40;56.90
78649;DHT22;67962;47.310;9.642;2023-02-28T01:07:37;3.30;57.00
78649;DHT22;67962;47.310;9.642;2023-02-28T01:10:04;3.30;57.20
78649;DHT22;67962;47.310;9.642;2023-02-28T01:12:30;3.20;57.60
78649;DHT22;67962;47.310;9.642;2023-02-28T01:14:55;3.20;57.70
78649;DHT22;67962;47.310;9.642;2023-02-28T01:23:52;3.10;58.50
78649;DHT22;67962;47.310;9.642;2023-02-28T01:26:22;3.00;58.90
78649;DHT22;67962;47.310;9.642;2023-02-28T01:28:50;3.00;59.00
78649;DHT22;67962;47.310;9.642;2023-02-28T01:31:16;3.00;58.90
78649;DHT22;67962;47.310;9.642;2023-02-28T01:33:43;3.00;59.00
78649;DHT22;67962;47.310;9.642;2023-02-28T01:36:12;2.90;59.40
78649;DHT22;67962;47.310;9.642;2023-02-28T01:38:39;2.80;59.30
78649;DHT22;67962;47.310;9.642;2023-02-28T01:41:05;2.80;59.60
78649;DHT22;67962;47.310;9.642;2023-02-28T01:43:53;2.80;59.60
78649;DHT22;67962;47.310;9.642;2023-02-28T01:46:19;2.60;59.40
78649;DHT22;67962;47.310;9.642;2023-02-28T01:51:22;2.50;60.30
78649;DHT22;67962;47.310;9.642;2023-02-28T01:53:55;2.50;60.50
78649;DHT22;67962;47.310;9.642;2023-02-28T01:56:24;2.40;60.50
78649;DHT22;67962;47.310;9.642;2023-02-28T01:58:53;2.40;60.50
78649;DHT22;67962;47.310;9.642;2023-02-28T02:01:21;2.40;60.70
78649;DHT22;67962;47.310;9.642;2023-02-28T02:03:56;2.50;60.60
78649;DHT22;67962;47.310;9.642;2023-02-28T02:06:30;2.40;60.60
78649;DHT22;67962;47.310;9.642;2023-02-28T02:08:58;2.50;60.60
78649;DHT22;67962;47.310;9.642;2023-02-28T02:11:24;2.50;60.60
78649;DHT22;67962;47.310;9.642;2023-02-28T02:33:39;2.30;60.50
78649;DHT22;67962;47.310;9.642;2023-02-28T02:41:53;2.30;60.50
78649;DHT22;67962;47.310;9.642;2023-02-28T02:47:15;2.40;60.60
78649;DHT22;67962;47.310;9.642;2023-02-28T02:49:48;2.30;60.60
78649;DHT22;67962;47.310;9.642;2023-02-28T02:52:18;2.30;60.50
78649;DHT22;67962;47.310;9.642;2023-02-28T02:54:48;2.30;60.70
78649;DHT22;67962;47.310;9.642;2023-02-28T02:57:25;2.20;60.80
78649;DHT22;67962;47.310;9.642;2023-02-28T02:59:54;2.10;60.80
78649;DHT22;67962;47.310;9.642;2023-02-28T03:02:22;2.00;61.00
78649;DHT22;67962;47.310;9.642;2023-02-28T03:04:52;2.00;61.50
78649;DHT22;67962;47.310;9.642;2023-02-28T03:07:19;1.90;61.40
78649;DHT22;67962;47.310;9.642;2023-02-28T03:09:56;1.90;61.50
78649;DHT22;67962;47.310;9.642;2023-02-28T03:12:50;1.90;61.60
78649;DHT22;67962;47.310;9.642;2023-02-28T03:15:27;2.00;61.70
78649;DHT22;67962;47.310;9.642;2023-02-28T03:18:16;2.00;61.50
78649;DHT22;67962;47.310;9.642;2023-02-28T03:21:12;2.00;61.60
78649;DHT22;67962;47.310;9.642;2023-02-28T03:24:11;2.10;61.80
78649;DHT22;67962;47.310;9.642;2023-02-28T03:26:50;2.20;61.80
78649;DHT22;67962;47.310;9.642;2023-02-28T03:29:37;2.20;61.60
78649;DHT22;67962;47.310;9.642;2023-02-28T03:34:42;2.20;61.80
78649;DHT22;67962;47.310;9.642;2023-02-28T03:37:16;2.10;61.70
78649;DHT22;67962;47.310;9.642;2023-02-28T03:39:50;2.20;62.10
78649;DHT22;67962;47.310;9.642;2023-02-28T03:42:21;2.20;61.80
78649;DHT22;67962;47.310;9.642;2023-02-28T03:45:18;2.20;61.90
78649;DHT22;67962;47.310;9.642;2023-02-28T03:48:02;2.20;61.80
78649;DHT22;67962;47.310;9.642;2023-02-28T03:50:40;2.30;61.90
78649;DHT22;67962;47.310;9.642;2023-02-28T03:53:08;2.20;61.80
78649;DHT22;67962;47.310;9.642;2023-02-28T03:55:47;2.30;62.00
78649;DHT22;67962;47.310;9.642;2023-02-28T03:58:40;2.30;62.20
78649;DHT22;67962;47.310;9.642;2023-02-28T04:01:22;2.20;62.10
78649;DHT22;67962;47.310;9.642;2023-02-28T04:03:49;2.20;62.00
78649;DHT22;67962;47.310;9.642;2023-02-28T04:06:18;2.10;61.10
78649;DHT22;67962;47.310;9.642;2023-02-28T04:08:45;2.10;61.40
78649;DHT22;67962;47.310;9.642;2023-02-28T04:13:51;2.30;61.00
78649;DHT22;67962;47.310;9.642;2023-02-28T04:16:17;2.40;61.80
78649;DHT22;67962;47.310;9.642;2023-02-28T04:18:43;2.40;61.10
78649;DHT22;67962;47.310;9.642;2023-02-28T04:21:09;2.40;61.20
78649;DHT22;67962;47.310;9.642;2023-02-28T04:23:35;2.40;61.40
78649;DHT22;67962;47.310;9.642;2023-02-28T04:26:01;2.40;61.20
78649;DHT22;67962;47.310;9.642;2023-02-28T04:28:26;2.50;61.30
78649;DHT22;67962;47.310;9.642;2023-02-28T04:30:57;2.60;61.40
78649;DHT22;67962;47.310;9.642;2023-02-28T04:33:23;2.60;60.80
78649;DHT22;67962;47.310;9.642;2023-02-28T04:36:07;2.60;61.20
78649;DHT22;67962;47.310;9.642;2023-02-28T04:38:35;2.60;61.00
78649;DHT22;67962;47.310;9.642;2023-02-28T04:41:01;2.60;61.10
78649;DHT22;67962;47.310;9.642;2023-02-28T04:43:28;2.50;61.20
78649;DHT22;67962;47.310;9.642;2023-02-28T04:45:55;2.50;61.20
78649;DHT22;67962;47.310;9.642;2023-02-28T04:48:27;2.60;61.00
78649;DHT22;67962;47.310;9.642;2023-02-28T04:50:53;2.60;60.80
78649;DHT22;67962;47.310;9.642;2023-02-28T04:53:19;2.60;60.70
78649;DHT22;67962;47.310;9.642;2023-02-28T04:55:45;2.60;60.60
78649;DHT22;67962;47.310;9.642;2023-02-28T04:58:15;2.60;60.30
78649;DHT22;67962;47.310;9.642;2023-02-28T05:00:41;2.60;60.10
78649;DHT22;67962;47.310;9.642;2023-02-28T05:03:07;2.40;61.10
78649;DHT22;67962;47.310;9.642;2023-02-28T05:05:33;2.30;60.90
78649;DHT22;67962;47.310;9.642;2023-02-28T05:07:58;2.40;61.10
78649;DHT22;67962;47.310;9.642;2023-02-28T05:10:24;2.40;60.90
78649;DHT22;67962;47.310;9.642;2023-02-28T05:12:50;2.50;60.80
78649;DHT22;67962;47.310;9.642;2023-02-28T05:15:17;2.50;60.70
78649;DHT22;67962;47.310;9.642;2023-02-28T05:17:43;2.60;60.60
78649;DHT22;67962;47.310;9.642;2023-02-28T05:20:10;2.60;60.60
78649;DHT22;67962;47.310;9.642;2023-02-28T05:22:40;2.60;60.60
78649;DHT22;67962;47.310;9.642;2023-02-28T05:25:06;2.70;60.70
78649;DHT22;67962;47.310;9.642;2023-02-28T05:27:32;2.70;60.30
78649;DHT22;67962;47.310;9.642;2023-02-28T05:29:59;2.60;60.30
78649;DHT22;67962;47.310;9.642;2023-02-28T05:32:25;2.50;60.60
78649;DHT22;67962;47.310;9.642;2023-02-28T05:34:50;2.50;60.60
78649;DHT22;67962;47.310;9.642;2023-02-28T05:37:16;2.50;60.60
78649;DHT22;67962;47.310;9.642;2023-02-28T05:39:42;2.40;60.50
78649;DHT22;67962;47.310;9.642;2023-02-28T05:42:08;2.30;60.90
78649;DHT22;67962;47.310;9.642;2023-02-28T05:44:35;2.30;61.20
78649;DHT22;67962;47.310;9.642;2023-02-28T05:47:00;2.40;61.40
78649;DHT22;67962;47.310;9.642;2023-02-28T05:49:26;2.50;61.30
78649;DHT22;67962;47.310;9.642;2023-02-28T05:51:52;2.50;61.20
78649;DHT22;67962;47.310;9.642;2023-02-28T05:54:17;2.60;61.40
78649;DHT22;67962;47.310;9.642;2023-02-28T05:56:43;2.70;61.40
78649;DHT22;67962;47.310;9.642;2023-02-28T05:59:09;2.70;61.30
78649;DHT22;67962;47.310;9.642;2023-02-28T06:01:45;2.70;61.10
78649;DHT22;67962;47.310;9.642;2023-02-28T06:04:14;2.50;61.30
78649;DHT22;67962;47.310;9.642;2023-02-28T06:06:44;2.50;61.50
78649;DHT22;67962;47.310;9.642;2023-02-28T06:09:10;2.50;61.50
78649;DHT22;67962;47.310;9.642;2023-02-28T06:11:36;2.50;61.40
78649;DHT22;67962;47.310;9.642;2023-02-28T06:14:03;2.60;61.70
78649;DHT22;67962;47.310;9.642;2023-02-28T06:16:30;2.60;61.20
78649;DHT22;67962;47.310;9.642;2023-02-28T06:19:01;2.60;61.40
78649;DHT22;67962;47.310;9.642;2023-02-28T06:21:28;2.50;61.60
78649;DHT22;67962;47.310;9.642;2023-02-28T06:23:55;2.50;61.60
78649;DHT22;67962;47.310;9.642;2023-02-28T06:26:21;2.60;61.60
78649;DHT22;67962;47.310;9.642;2023-02-28T06:28:46;2.70;61.50
78649;DHT22;67962;47.310;9.642;2023-02-28T06:31:15;2.60;60.60
78649;DHT22;67962;47.310;9.642;2023-02-28T06:33:42;2.40;60.30
78649;DHT22;67962;47.310;9.642;2023-02-28T06:36:10;2.40;60.30
78649;DHT22;67962;47.310;9.642;2023-02-28T06:38:36;2.30;60.40
78649;DHT22;67962;47.310;9.642;2023-02-28T06:41:03;2.30;60.30
78649;DHT22;67962;47.310;9.642;2023-02-28T06:43:32;2.20;60.20
78649;DHT22;67962;47.310;9.642;2023-02-28T06:46:00;2.10;60.30
78649;DHT22;67962;47.310;9.642;2023-02-28T06:48:27;1.90;60.30
78649;DHT22;67962;47.310;9.642;2023-02-28T06:51:10;1.90;60.30
78649;DHT22;67962;47.310;9.642;2023-02-28T06:53:37;2.10;60.70
78649;DHT22;67962;47.310;9.642;2023-02-28T06:56:05;2.30;60.10
78649;DHT22;67962;47.310;9.642;2023-02-28T06:58:32;2.40;60.20
78649;DHT22;67962;47.310;9.642;2023-02-28T07:00:57;2.60;60.20
78649;DHT22;67962;47.310;9.642;2023-02-28T07:03:23;2.70;59.60
78649;DHT22;67962;47.310;9.642;2023-02-28T07:05:49;2.70;59.40
78649;DHT22;67962;47.310;9.642;2023-02-28T07:08:15;2.80;59.10
78649;DHT22;67962;47.310;9.642;2023-02-28T07:10:41;2.90;59.10
78649;DHT22;67962;47.310;9.642;2023-02-28T07:13:08;3.20;58.90
78649;DHT22;67962;47.310;9.642;2023-02-28T07:15:35;3.30;57.10
78649;DHT22;67962;47.310;9.642;2023-02-28T07:18:00;3.30;56.50
78649;DHT22;67962;47.310;9.642;2023-02-28T07:20:26;3.30;57.00
78649;DHT22;67962;47.310;9.642;2023-02-28T07:22:52;3.30;55.90
78649;DHT22;67962;47.310;9.642;2023-02-28T07:25:30;3.30;55.80
78649;DHT22;67962;47.310;9.642;2023-02-28T07:27:56;3.20;55.90
78649;DHT22;67962;47.310;9.642;2023-02-28T07:30:22;3.30;56.50
78649;DHT22;67962;47.310;9.642;2023-02-28T07:32:48;3.40;56.00
78649;DHT22;67962;47.310;9.642;2023-02-28T07:35:13;3.40;54.40
78649;DHT22;67962;47.310;9.642;2023-02-28T07:37:41;3.30;54.50
78649;DHT22;67962;47.310;9.642;2023-02-28T07:40:10;3.40;54.50
78649;DHT22;67962;47.310;9.642;2023-02-28T07:42:41;3.40;54.80
78649;DHT22;67962;47.310;9.642;2023-02-28T07:45:07;3.70;54.80
78649;DHT22;67962;47.310;9.642;2023-02-28T07:47:33;3.80;54.40
78649;DHT22;67962;47.310;9.642;2023-02-28T07:49:59;3.80;54.00
78649;DHT22;67962;47.310;9.642;2023-02-28T07:52:25;3.80;54.30
78649;DHT22;67962;47.310;9.642;2023-02-28T07:54:51;3.90;54.00
78649;DHT22;67962;47.310;9.642;2023-02-28T07:57:17;3.80;52.10
78649;DHT22;67962;47.310;9.642;2023-02-28T07:59:43;3.60;52.70
78649;DHT22;67962;47.310;9.642;2023-02-28T08:02:16;3.50;53.20
78649;DHT22;67962;47.310;9.642;2023-02-28T08:04:42;3.60;54.00
78649;DHT22;67962;47.310;9.642;2023-02-28T08:07:08;3.50;53.50
78649;DHT22;67962;47.310;9.642;2023-02-28T08:09:35;3.50;53.70
78649;DHT22;67962;47.310;9.642;2023-02-28T08:12:00;3.50;54.30
78649;DHT22;67962;47.310;9.642;2023-02-28T08:14:26;3.40;54.90
78649;DHT22;67962;47.310;9.642;2023-02-28T08:16:52;3.60;55.40
78649;DHT22;67962;47.310;9.642;2023-02-28T08:19:18;3.90;55.40
78649;DHT22;67962;47.310;9.642;2023-02-28T08:21:43;4.00;54.90
78649;DHT22;67962;47.310;9.642;2023-02-28T08:24:09;4.00;54.80
78649;DHT22;67962;47.310;9.642;2023-02-28T08:26:35;4.20;54.50
78649;DHT22;67962;47.310;9.642;2023-02-28T08:29:00;4.20;54.60
78649;DHT22;67962;47.310;9.642;2023-02-28T08:31:26;4.30;53.90
78649;DHT22;67962;47.310;9.642;2023-02-28T08:33:52;4.40;54.40
78649;DHT22;67962;47.310;9.642;2023-02-28T08:36:19;4.20;53.30
78649;DHT22;67962;47.310;9.642;2023-02-28T08:38:45;4.10;53.40
78649;DHT22;67962;47.310;9.642;2023-02-28T08:41:12;4.20;54.50
78649;DHT22;67962;47.310;9.642;2023-02-28T08:43:39;4.20;54.10
78649;DHT22;67962;47.310;9.642;2023-02-28T08:46:05;4.30;54.40
78649;DHT22;67962;47.310;9.642;2023-02-28T08:48:33;4.40;53.70
78649;DHT22;67962;47.310;9.642;2023-02-28T08:51:02;4.50;53.40
78649;DHT22;67962;47.310;9.642;2023-02-28T08:53:28;4.50;52.40
78649;DHT22;67962;47.310;9.642;2023-02-28T08:56:19;4.40;52.40
78649;DHT22;67962;47.310;9.642;2023-02-28T08:58:47;4.50;53.00
78649;DHT22;67962;47.310;9.642;2023-02-28T09:01:15;4.30;53.60
78649;DHT22;67962;47.310;9.642;2023-02-28T09:03:42;4.30;52.80
78649;DHT22;67962;47.310;9.642;2023-02-28T09:06:09;4.30;52.80
78649;DHT22;67962;47.310;9.642;2023-02-28T09:08:36;4.30;53.60
78649;DHT22;67962;47.310;9.642;2023-02-28T09:11:02;4.40;53.20
78649;DHT22;67962;47.310;9.642;2023-02-28T09:13:29;4.50;53.50
78649;DHT22;67962;47.310;9.642;2023-02-28T09:15:58;4.60;53.70
78649;DHT22;67962;47.310;9.642;2023-02-28T09:18:24;4.70;52.80
78649;DHT22;67962;47.310;9.642;2023-02-28T09:20:49;4.80;53.10
78649;DHT22;67962;47.310;9.642;2023-02-28T09:23:16;4.90;53.00
78649;DHT22;67962;47.310;9.642;2023-02-28T09:25:49;5.10;54.10
78649;DHT22;67962;47.310;9.642;2023-02-28T09:28:15;5.10;52.70
78649;DHT22;67962;47.310;9.642;2023-02-28T09:30:44;5.20;52.90
78649;DHT22;67962;47.310;9.642;2023-02-28T09:33:10;5.20;51.50
78649;DHT22;67962;47.310;9.642;2023-02-28T09:35:36;5.20;52.00
78649;DHT22;67962;47.310;9.642;2023-02-28T09:38:03;5.40;52.50
78649;DHT22;67962;47.310;9.642;2023-02-28T09:40:30;5.40;51.50
78649;DHT22;67962;47.310;9.642;2023-02-28T09:42:57;5.20;51.40
78649;DHT22;67962;47.310;9.642;2023-02-28T09:45:37;5.30;52.30
78649;DHT22;67962;47.310;9.642;2023-02-28T09:48:13;5.40;51.30
78649;DHT22;67962;47.310;9.642;2023-02-28T09:50:46;5.50;51.40
78649;DHT22;67962;47.310;9.642;2023-02-28T09:53:26;5.60;50.40
78649;DHT22;67962;47.310;9.642;2023-02-28T09:56:04;5.60;51.30
78649;DHT22;67962;47.310;9.642;2023-02-28T10:06:50;5.70;48.60
78649;DHT22;67962;47.310;9.642;2023-02-28T10:09:29;5.60;47.40
78649;DHT22;67962;47.310;9.642;2023-02-28T10:12:00;5.50;50.30
78649;DHT22;67962;47.310;9.642;2023-02-28T10:14:30;5.80;50.80
78649;DHT22;67962;47.310;9.642;2023-02-28T10:17:21;6.10;50.50
78649;DHT22;67962;47.310;9.642;2023-02-28T10:25:18;6.70;50.30
78649;DHT22;67962;47.310;9.642;2023-02-28T10:27:44;6.90;49.90
78649;DHT22;67962;47.310;9.642;2023-02-28T10:30:11;7.00;49.80
78649;DHT22;67962;47.310;9.642;2023-02-28T10:32:38;7.10;49.30
78649;DHT22;67962;47.310;9.642;2023-02-28T10:35:22;7.00;47.70
78649;DHT22;67962;47.310;9.642;2023-02-28T10:37:59;7.00;46.30
78649;DHT22;67962;47.310;9.642;2023-02-28T10:40:33;7.00;48.60
78649;DHT22;67962;47.310;9.642;2023-02-28T10:45:38;7.10;49.00
78649;DHT22;67962;47.310;9.642;2023-02-28T10:48:27;7.30;46.60
78649;DHT22;67962;47.310;9.642;2023-02-28T10:50:52;7.10;46.20
78649;DHT22;67962;47.310;9.642;2023-02-28T10:58:47;7.20;46.80
78649;DHT22;67962;47.310;9.642;2023-02-28T11:01:37;7.20;46.20
78649;DHT22;67962;47.310;9.642;2023-02-28T11:04:02;7.00;48.20
78649;DHT22;67962;47.310;9.642;2023-02-28T11:06:33;7.20;48.50
78649;DHT22;67962;47.310;9.642;2023-02-28T11:09:05;7.40;48.90
78649;DHT22;67962;47.310;9.642;2023-02-28T11:11:43;7.40;47.30
78649;DHT22;67962;47.310;9.642;2023-02-28T11:14:26;7.40;48.50
78649;DHT22;67962;47.310;9.642;2023-02-28T11:16:54;7.40;47.20
78649;DHT22;67962;47.310;9.642;2023-02-28T11:19:28;7.30;47.30
78649;DHT22;67962;47.310;9.642;2023-02-28T11:22:00;7.20;46.90
78649;DHT22;67962;47.310;9.642;2023-02-28T11:24:49;7.00;48.60
78649;DHT22;67962;47.310;9.642;2023-02-28T11:27:42;7.10;48.30
78649;DHT22;67962;47.310;9.642;2023-02-28T11:30:45;7.00;47.50
78649;DHT22;67962;47.310;9.642;2023-02-28T11:36:31;7.40;46.90
78649;DHT22;67962;47.310;9.642;2023-02-28T11:38:59;7.30;48.30
78649;DHT22;67962;47.310;9.642;2023-02-28T11:51:47;7.70;47.30
78649;DHT22;67962;47.310;9.642;2023-02-28T11:57:09;7.50;47.40
78649;DHT22;67962;47.310;9.642;2023-02-28T12:03:26;7.20;48.90
78649;DHT22;67962;47.310;9.642;2023-02-28T12:05:45;7.40;48.40
78649;DHT22;67962;47.310;9.642;2023-02-28T12:08:32;7.40;47.90
78649;DHT22;67962;47.310;9.642;2023-02-28T12:13:54;7.60;48.10
78649;DHT22;67962;47.310;9.642;2023-02-28T12:19:25;7.40;47.30
78649;DHT22;67962;47.310;9.642;2023-02-28T12:27:29;7.30;45.50
78649;DHT22;67962;47.310;9.642;2023-02-28T12:32:42;7.10;48.40
78649;DHT22;67962;47.310;9.642;2023-02-28T12:37:49;7.20;48.40
78649;DHT22;67962;47.310;9.642;2023-02-28T12:40:21;7.30;47.40
78649;DHT22;67962;47.310;9.642;2023-02-28T12:42:58;7.10;47.70
78649;DHT22;67962;47.310;9.642;2023-02-28T12:45:44;7.20;49.20
78649;DHT22;67962;47.310;9.642;2023-02-28T12:48:15;7.30;49.40
78649;DHT22;67962;47.310;9.642;2023-02-28T12:50:45;7.20;49.30
78649;DHT22;67962;47.310;9.642;2023-02-28T12:53:27;7.20;46.90
78649;DHT22;67962;47.310;9.642;2023-02-28T12:56:29;7.10;48.60
78649;DHT22;67962;47.310;9.642;2023-02-28T12:59:01;7.00;47.10
78649;DHT22;67962;47.310;9.642;2023-02-28T13:04:32;7.00;47.40
78649;DHT22;67962;47.310;9.642;2023-02-28T13:10:06;6.80;47.30
78649;DHT22;67962;47.310;9.642;2023-02-28T13:12:33;6.60;46.40
78649;DHT22;67962;47.310;9.642;2023-02-28T13:15:08;6.80;48.50
78649;DHT22;67962;47.310;9.642;2023-02-28T13:17:39;6.90;48.10
78649;DHT22;67962;47.310;9.642;2023-02-28T13:20:20;7.10;47.60
78649;DHT22;67962;47.310;9.642;2023-02-28T13:22:48;7.00;45.10
78649;DHT22;67962;47.310;9.642;2023-02-28T13:27:59;6.80;47.00
78649;DHT22;67962;47.310;9.642;2023-02-28T13:38:38;6.80;48.70
78649;DHT22;67962;47.310;9.642;2023-02-28T13:44:17;7.00;48.30
78649;DHT22;67962;47.310;9.642;2023-02-28T13:54:50;6.80;48.10
78649;DHT22;67962;47.310;9.642;2023-02-28T14:06:29;6.90;49.90
78649;DHT22;67962;47.310;9.642;2023-02-28T14:11:44;7.10;48.00
78649;DHT22;67962;47.310;9.642;2023-02-28T14:17:03;7.00;49.00
78649;DHT22;67962;47.310;9.642;2023-02-28T14:19:31;6.90;47.70
78649;DHT22;67962;47.310;9.642;2023-02-28T14:25:17;6.70;48.90
78649;DHT22;67962;47.310;9.642;2023-02-28T14:28:14;6.80;49.40
78649;DHT22;67962;47.310;9.642;2023-02-28T14:33:35;7.00;48.80
78649;DHT22;67962;47.310;9.642;2023-02-28T14:36:24;7.20;49.10
78649;DHT22;67962;47.310;9.642;2023-02-28T14:38:55;7.30;47.70
78649;DHT22;67962;47.310;9.642;2023-02-28T14:41:33;6.90;47.70
78649;DHT22;67962;47.310;9.642;2023-02-28T14:46:41;6.80;47.20
78649;DHT22;67962;47.310;9.642;2023-02-28T14:49:17;6.20;48.90
78649;DHT22;67962;47.310;9.642;2023-02-28T14:51:43;6.40;50.00
78649;DHT22;67962;47.310;9.642;2023-02-28T14:54:14;6.70;51.60
78649;DHT22;67962;47.310;9.642;2023-02-28T14:56:41;6.90;49.60
78649;DHT22;67962;47.310;9.642;2023-02-28T14:59:31;6.90;47.80
78649;DHT22;67962;47.310;9.642;2023-02-28T15:02:24;6.70;48.00
78649;DHT22;67962;47.310;9.642;2023-02-28T15:04:56;6.50;49.20
78649;DHT22;67962;47.310;9.642;2023-02-28T15:07:22;6.40;49.70
78649;DHT22;67962;47.310;9.642;2023-02-28T15:10:25;6.30;49.30
78649;DHT22;67962;47.310;9.642;2023-02-28T15:15:20;6.40;49.60
78649;DHT22;67962;47.310;9.642;2023-02-28T15:17:52;6.40;50.00
78649;DHT22;67962;47.310;9.642;2023-02-28T15:20:20;6.50;50.10
78649;DHT22;67962;47.310;9.642;2023-02-28T15:22:47;6.60;49.80
78649;DHT22;67962;47.310;9.642;2023-02-28T15:25:18;6.70;49.60
78649;DHT22;67962;47.310;9.642;2023-02-28T15:27:48;6.60;49.60
78649;DHT22;67962;47.310;9.642;2023-02-28T15:30:27;6.50;50.20
78649;DHT22;67962;47.310;9.642;2023-02-28T15:35:41;6.40;50.00
78649;DHT22;67962;47.310;9.642;2023-02-28T15:40:49;6.50;50.70
78649;DHT22;67962;47.310;9.642;2023-02-28T15:43:33;6.40;50.00
78649;DHT22;67962;47.310;9.642;2023-02-28T15:51:12;6.40;50.50
78649;DHT22;67962;47.310;9.642;2023-02-28T15:53:56;6.30;51.00
78649;DHT22;67962;47.310;9.642;2023-02-28T15:56:28;6.10;51.40
78649;DHT22;67962;47.310;9.642;2023-02-28T15:59:02;6.20;51.80
78649;DHT22;67962;47.310;9.642;2023-02-28T16:01:31;6.30;51.20
78649;DHT22;67962;47.310;9.642;2023-02-28T16:04:22;6.10;50.80
78649;DHT22;67962;47.310;9.642;2023-02-28T16:09:24;6.20;50.90
78649;DHT22;67962;47.310;9.642;2023-02-28T16:11:52;6.20;51.40
78649;DHT22;67962;47.310;9.642;2023-02-28T16:14:21;6.10;51.10
78649;DHT22;67962;47.310;9.642;2023-02-28T16:16:54;6.10;51.20
78649;DHT22;67962;47.310;9.642;2023-02-28T16:19:20;6.10;51.60
78649;DHT22;67962;47.310;9.642;2023-02-28T16:21:46;6.00;51.40
78649;DHT22;67962;47.310;9.642;2023-02-28T16:24:12;6.00;51.80
78649;DHT22;67962;47.310;9.642;2023-02-28T16:26:40;5.80;50.60
78649;DHT22;67962;47.310;9.642;2023-02-28T16:29:06;5.40;51.20
78649;DHT22;67962;47.310;9.642;2023-02-28T16:31:36;5.50;52.30
78649;DHT22;67962;47.310;9.642;2023-02-28T16:34:03;5.50;51.80
78649;DHT22;67962;47.310;9.642;2023-02-28T16:36:29;5.50;52.40
78649;DHT22;67962;47.310;9.642;2023-02-28T16:38:55;5.50;52.50
78649;DHT22;67962;47.310;9.642;2023-02-28T16:41:24;5.40;53.40
78649;DHT22;67962;47.310;9.642;2023-02-28T16:43:52;5.50;53.20
78649;DHT22;67962;47.310;9.642;2023-02-28T16:46:20;5.40;52.80
78649;DHT22;67962;47.310;9.642;2023-02-28T16:48:46;5.40;53.20
78649;DHT22;67962;47.310;9.642;2023-02-28T16:51:15;5.40;53.20
78649;DHT22;67962;47.310;9.642;2023-02-28T16:53:42;5.50;53.40
78649;DHT22;67962;47.310;9.642;2023-02-28T16:56:34;5.50;53.30
78649;DHT22;67962;47.310;9.642;2023-02-28T16:59:02;5.40;53.80
78649;DHT22;67962;47.310;9.642;2023-02-28T17:01:28;5.40;53.80
78649;DHT22;67962;47.310;9.642;2023-02-28T17:03:54;5.50;53.60
78649;DHT22;67962;47.310;9.642;2023-02-28T17:06:27;5.40;53.50
78649;DHT22;67962;47.310;9.642;2023-02-28T17:08:54;5.40;53.00
78649;DHT22;67962;47.310;9.642;2023-02-28T17:11:21;5.40;53.00
78649;DHT22;67962;47.310;9.642;2023-02-28T17:13:47;5.40;53.50
78649;DHT22;67962;47.310;9.642;2023-02-28T17:16:29;5.40;53.80
78649;DHT22;67962;47.310;9.642;2023-02-28T17:18:58;5.50;53.50
78649;DHT22;67962;47.310;9.642;2023-02-28T17:21:24;5.50;53.20
78649;DHT22;67962;47.310;9.642;2023-02-28T17:23:50;5.40;53.80
78649;DHT22;67962;47.310;9.642;2023-02-28T17:26:18;5.40;54.00
78649;DHT22;67962;47.310;9.642;2023-02-28T17:28:50;5.40;53.90
78649;DHT22;67962;47.310;9.642;2023-02-28T17:31:17;5.40;53.50
78649;DHT22;67962;47.310;9.642;2023-02-28T17:33:44;5.40;54.00
78649;DHT22;67962;47.310;9.642;2023-02-28T17:36:15;5.40;53.40
78649;DHT22;67962;47.310;9.642;2023-02-28T17:38:41;5.40;54.00
78649;DHT22;67962;47.310;9.642;2023-02-28T17:41:13;5.40;54.00
78649;DHT22;67962;47.310;9.642;2023-02-28T17:43:40;5.30;54.30
78649;DHT22;67962;47.310;9.642;2023-02-28T17:46:23;5.30;54.40
78649;DHT22;67962;47.310;9.642;2023-02-28T17:48:51;5.40;54.20
78649;DHT22;67962;47.310;9.642;2023-02-28T17:51:19;5.40;53.90
78649;DHT22;67962;47.310;9.642;2023-02-28T17:53:45;5.30;54.00
78649;DHT22;67962;47.310;9.642;2023-02-28T17:56:22;5.40;54.60
78649;DHT22;67962;47.310;9.642;2023-02-28T17:58:49;5.40;54.30
78649;DHT22;67962;47.310;9.642;2023-02-28T18:01:17;5.40;54.30
78649;DHT22;67962;47.310;9.642;2023-02-28T18:03:43;5.30;54.30
78649;DHT22;67962;47.310;9.642;2023-02-28T18:06:37;5.30;54.80
78649;DHT22;67962;47.310;9.642;2023-02-28T18:09:17;5.30;55.10
78649;DHT22;67962;47.310;9.642;2023-02-28T18:11:43;5.30;54.90
78649;DHT22;67962;47.310;9.642;2023-02-28T18:14:15;5.30;54.70
78649;DHT22;67962;47.310;9.642;2023-02-28T18:16:42;5.30;55.00
78649;DHT22;67962;47.310;9.642;2023-02-28T18:19:08;5.20;53.30
78649;DHT22;67962;47.310;9.642;2023-02-28T18:21:50;5.10;53.80
78649;DHT22;67962;47.310;9.642;2023-02-28T18:24:18;5.00;54.60
78649;DHT22;67962;47.310;9.642;2023-02-28T18:26:44;4.90;53.60
78649;DHT22;67962;47.310;9.642;2023-02-28T18:29:24;4.70;54.20
78649;DHT22;67962;47.310;9.642;2023-02-28T18:31:51;4.70;55.20
78649;DHT22;67962;47.310;9.642;2023-02-28T18:34:17;4.70;54.50
78649;DHT22;67962;47.310;9.642;2023-02-28T18:36:43;4.70;54.70
78649;DHT22;67962;47.310;9.642;2023-02-28T18:39:11;4.60;55.40
78649;DHT22;67962;47.310;9.642;2023-02-28T18:41:38;4.60;55.10
78649;DHT22;67962;47.310;9.642;2023-02-28T18:44:04;4.70;55.60
78649;DHT22;67962;47.310;9.642;2023-02-28T18:46:30;4.70;55.50
78649;DHT22;67962;47.310;9.642;2023-02-28T18:48:56;4.80;55.40
78649;DHT22;67962;47.310;9.642;2023-02-28T18:51:24;4.80;55.50
78649;DHT22;67962;47.310;9.642;2023-02-28T18:53:51;4.80;55.10